Time;durP1;ratioP1;P1;durP2;ratioP2;P2;SDS_P1;SDS_P2;PMS_P1;PMS_P2;Temp;Humidity;BMP_temperature;BMP_pressure;BME280_temperature;BME280_humidity;BME280_pressure;Samples;Min_cycle;Max_cycle;Signal;HPM_P1;HPM_P2
2022/08/15 00:00:16;;;;;;;1999.90;999.90;;;;;;;24.80;40.63;94483.16;4984239;28;20172;-65
2022/08/15 00:02:43;;;;;;;1999.90;999.90;;;;;;;25.02;40.64;94494.47;5022762;28;20032;-65
2022/08/15 00:05:13;;;;;;;1999.90;999.90;;;;;;;24.68;41.44;94500.06;5017598;28;20037;-65
2022/08/15 00:07:39;;;;;;;1999.90;999.90;;;;;;;24.83;40.98;94492.47;5031027;28;20052;-64
2022/08/15 00:10:07;;;;;;;1999.90;999.90;;;;;;;24.53;40.81;94471.53;5011517;28;20036;-65
2022/08/15 00:12:34;;;;;;;1999.90;999.90;;;;;;;24.85;40.44;94490.84;5027252;28;20026;-66
2022/08/15 00:15:00;;;;;;;1999.90;999.90;;;;;;;24.98;40.25;94496.50;5020699;28;20029;-64
2022/08/15 00:17:25;;;;;;;1999.90;999.90;;;;;;;25.06;40.21;94502.59;5024583;28;20045;-65
2022/08/15 00:19:50;;;;;;;1999.90;999.90;;;;;;;24.98;39.97;94476.66;5012486;28;20533;-64
2022/08/15 00:22:17;;;;;;;1999.90;999.90;;;;;;;24.76;40.29;94487.09;5004732;28;20079;-65
2022/08/15 00:24:45;;;;;;;1999.90;999.90;;;;;;;25.02;40.07;94486.31;4994162;28;20037;-64
2022/08/15 00:27:11;;;;;;;1999.90;999.90;;;;;;;25.05;39.78;94488.22;5011088;28;20033;-65
2022/08/15 00:29:38;;;;;;;1999.90;999.90;;;;;;;25.03;39.52;94489.81;4993578;28;20030;-64
2022/08/15 00:32:06;;;;;;;1999.90;999.90;;;;;;;25.11;39.73;94492.03;4993453;28;20413;-65
2022/08/15 00:34:32;;;;;;;1999.90;999.90;;;;;;;25.18;39.61;94499.31;5012633;28;20068;-65
2022/08/15 00:36:59;;;;;;;1999.90;999.90;;;;;;;25.05;39.41;94465.69;5029344;28;20382;-65
2022/08/15 00:39:26;;;;;;;1999.90;999.90;;;;;;;25.27;39.39;94491.41;5028917;28;20034;-65
2022/08/15 00:41:53;;;;;;;1999.90;999.90;;;;;;;25.29;39.55;94489.06;5013858;28;20029;-65
2022/08/15 00:44:40;;;;;;;1999.90;999.90;;;;;;;25.28;39.40;94498.38;5025118;28;20163;-65
2022/08/15 00:47:09;;;;;;;1999.90;999.90;;;;;;;25.14;39.12;94472.19;4990511;28;20033;-65
2022/08/15 00:49:35;;;;;;;1999.90;999.90;;;;;;;25.30;39.25;94498.75;5010256;28;20022;-65
2022/08/15 00:52:16;;;;;;;1999.90;999.90;;;;;;;25.33;39.28;94505.31;5024507;28;20367;-65
2022/08/15 00:54:52;;;;;;;1999.90;999.90;;;;;;;25.34;38.92;94501.41;5009497;28;20029;-65
2022/08/15 00:57:25;;;;;;;1999.90;999.90;;;;;;;25.34;39.22;94499.47;4996347;28;20044;-64
2022/08/15 00:59:57;;;;;;;1999.90;999.90;;;;;;;25.37;38.92;94503.31;5022155;28;20442;-64
2022/08/15 01:02:29;;;;;;;1999.90;999.90;;;;;;;25.37;39.15;94498.63;4992286;28;20095;-65
2022/08/15 01:04:55;;;;;;;1999.90;999.90;;;;;;;25.16;39.11;94463.59;5006713;28;20037;-64
2022/08/15 01:07:22;;;;;;;1999.90;999.90;;;;;;;25.30;39.25;94487.09;5012670;28;20030;-64
2022/08/15 01:09:49;;;;;;;1999.90;999.90;;;;;;;25.27;39.31;94487.91;5024774;28;20049;-64
2022/08/15 01:12:18;;;;;;;1999.90;999.90;;;;;;;25.30;39.25;94496.03;5028259;28;20037;-64
2022/08/15 01:14:57;;;;;;;1999.90;999.90;;;;;;;25.23;39.44;94484.47;5010146;28;20107;-64
2022/08/15 01:17:26;;;;;;;1999.90;999.90;;;;;;;25.06;39.39;94472.66;4992605;28;20054;-64
2022/08/15 01:20:11;;;;;;;1999.90;999.90;;;;;;;25.04;40.03;94483.22;4996166;28;20116;-64
2022/08/15 01:23:01;;;;;;;1999.90;999.90;;;;;;;25.07;39.83;94494.03;5011632;28;20037;-64
2022/08/15 01:25:31;;;;;;;1999.90;999.90;;;;;;;25.04;40.00;94489.41;5008085;28;20072;-64
2022/08/15 01:28:05;;;;;;;1999.90;999.90;;;;;;;24.88;39.77;94472.97;5010189;28;20034;-64
2022/08/15 01:30:36;;;;;;;1999.90;999.90;;;;;;;25.02;39.87;94491.00;4995722;28;20026;-64
2022/08/15 01:33:01;;;;;;;1999.90;999.90;;;;;;;25.00;40.09;94496.09;4991346;28;20021;-64
2022/08/15 01:35:28;;;;;;;1999.90;999.90;;;;;;;24.97;40.22;94483.31;5009525;28;20494;-64
2022/08/15 01:37:55;;;;;;;1999.90;999.90;;;;;;;24.98;40.34;94496.50;5012231;28;20025;-63
2022/08/15 01:40:36;;;;;;;1999.90;999.90;;;;;;;24.96;40.58;94498.09;5015617;28;20064;-64
2022/08/15 01:43:03;;;;;;;1999.90;999.90;;;;;;;24.81;40.49;94476.53;4992043;28;20034;-64
2022/08/15 01:45:30;;;;;;;1999.90;999.90;;;;;;;24.89;40.64;94498.97;5004679;28;20034;-64
2022/08/15 01:48:03;;;;;;;1999.90;999.90;;;;;;;24.86;40.39;94495.13;5025903;28;20025;-64
2022/08/15 01:50:43;;;;;;;1999.90;999.90;;;;;;;24.69;40.65;94468.94;5009937;28;20030;-64
2022/08/15 01:53:17;;;;;;;1999.90;999.90;;;;;;;24.79;40.62;94489.03;5009306;28;20030;-64
2022/08/15 01:56:05;;;;;;;1999.90;999.90;;;;;;;24.86;40.80;94491.63;5024545;28;20041;-64
2022/08/15 01:58:36;;;;;;;1999.90;999.90;;;;;;;24.79;40.67;94489.03;5007581;28;20486;-64
2022/08/15 02:01:09;;;;;;;1999.90;999.90;;;;;;;24.77;40.75;94478.56;5018423;28;20080;-64
2022/08/15 02:03:36;;;;;;;1999.90;999.90;;;;;;;24.87;41.00;94504.03;5009107;28;20026;-64
2022/08/15 02:06:10;;;;;;;1999.90;999.90;;;;;;;24.92;40.98;94505.53;5010867;28;20403;-64
2022/08/15 02:08:37;;;;;;;1999.90;999.90;;;;;;;24.91;40.93;94499.31;5026668;28;20047;-64
2022/08/15 02:11:12;;;;;;;1999.90;999.90;;;;;;;24.75;40.85;94485.56;5001537;28;20034;-64
2022/08/15 02:13:41;;;;;;;1999.90;999.90;;;;;;;24.83;41.11;94498.66;5024786;28;20161;-64
2022/08/15 02:16:07;;;;;;;1999.90;999.90;;;;;;;24.85;40.96;94512.63;5004045;28;20033;-63
2022/08/15 02:18:32;;;;;;;1999.90;999.90;;;;;;;24.72;40.89;94491.81;5027125;28;20135;-63
2022/08/15 02:20:57;;;;;;;1999.90;999.90;;;;;;;24.83;40.86;94493.22;5009723;28;20037;-63
2022/08/15 02:23:25;;;;;;;1999.90;999.90;;;;;;;24.62;40.76;94458.19;5008821;28;20057;-63
2022/08/15 02:25:52;;;;;;;1999.90;999.90;;;;;;;25.15;40.79;94519.22;5027255;28;20041;-63
2022/08/15 02:28:18;;;;;;;1999.90;999.90;;;;;;;25.18;40.54;94528.50;5027224;28;20083;-64
2022/08/15 02:30:45;;;;;;;1999.90;999.90;;;;;;;25.04;40.54;94485.94;5020215;28;20115;-63
2022/08/15 02:33:11;;;;;;;1999.90;999.90;;;;;;;24.94;40.47;94460.41;5009204;28;20475;-64
2022/08/15 02:35:38;;;;;;;1999.90;999.90;;;;;;;25.30;40.30;94511.59;5005974;28;20033;-63
2022/08/15 02:38:05;;;;;;;1999.90;999.90;;;;;;;24.81;40.22;94443.13;5007079;28;20149;-63
2022/08/15 02:40:31;;;;;;;1999.90;999.90;;;;;;;25.27;40.29;94518.63;5009099;28;20029;-65
2022/08/15 02:43:07;;;;;;;1999.90;999.90;;;;;;;25.10;40.66;94515.00;4991658;28;20068;-63
2022/08/15 02:45:34;;;;;;;1999.90;999.90;;;;;;;24.84;40.63;94489.31;5019135;28;20057;-63
2022/08/15 02:48:00;;;;;;;1999.90;999.90;;;;;;;25.11;40.64;94518.50;4998726;28;20036;-63
2022/08/15 02:50:26;;;;;;;1999.90;999.90;;;;;;;25.16;40.40;94509.84;5014799;28;20033;-63
2022/08/15 02:52:51;;;;;;;1999.90;999.90;;;;;;;25.07;40.73;94496.78;5004968;28;20022;-63
2022/08/15 02:55:18;;;;;;;1999.90;999.90;;;;;;;24.92;40.77;94505.53;5013774;28;20482;-64
2022/08/15 02:57:44;;;;;;;1999.90;999.90;;;;;;;25.02;40.75;94508.09;5036116;28;20037;-63
2022/08/15 03:00:15;;;;;;;1999.90;999.90;;;;;;;24.90;41.10;94525.75;5013822;28;20100;-65
2022/08/15 03:02:54;;;;;;;1999.90;999.90;;;;;;;24.78;40.88;94499.13;5017793;28;20102;-63
2022/08/15 03:05:24;;;;;;;1999.90;999.90;;;;;;;25.05;41.00;94512.72;5014277;28;20033;-64
2022/08/15 03:07:50;;;;;;;1999.90;999.90;;;;;;;24.86;41.01;94519.59;5025440;28;20035;-64
2022/08/15 03:10:16;;;;;;;1999.90;999.90;;;;;;;23.23;41.64;94351.19;5002935;28;20116;-64
2022/08/15 03:12:56;;;;;;;1999.90;999.90;;;;;;;24.85;40.98;94520.78;5014786;28;20026;-64
2022/08/15 03:15:30;;;;;;;1999.90;999.90;;;;;;;24.93;40.91;94523.38;4997732;28;20244;-64
2022/08/15 03:17:55;;;;;;;1999.90;999.90;;;;;;;24.64;40.79;94486.50;5016020;28;20080;-64
2022/08/15 03:20:21;;;;;;;1999.90;999.90;;;;;;;24.81;40.53;94513.84;5002216;28;20022;-63
2022/08/15 03:22:49;;;;;;;1999.90;999.90;;;;;;;25.11;40.97;94530.16;4998803;28;20328;-64
2022/08/15 03:25:16;;;;;;;1999.90;999.90;;;;;;;24.62;40.80;94496.25;5007637;28;20489;-64
2022/08/15 03:27:42;;;;;;;1999.90;999.90;;;;;;;24.72;40.44;94480.94;5016126;28;20112;-63
2022/08/15 03:30:11;;;;;;;1999.90;999.90;;;;;;;25.31;40.38;94541.13;5027918;28;20036;-64
2022/08/15 03:32:52;;;;;;;1999.90;999.90;;;;;;;25.01;41.38;94533.75;5016287;28;20501;-64
2022/08/15 03:35:20;;;;;;;1999.90;999.90;;;;;;;25.13;40.88;94543.31;5012866;28;20033;-63
2022/08/15 03:37:46;;;;;;;1999.90;999.90;;;;;;;24.65;41.13;94495.41;5027612;28;20034;-63
2022/08/15 03:40:12;;;;;;;1999.90;999.90;;;;;;;24.89;41.41;94540.56;5013948;28;20040;-63
2022/08/15 03:42:38;;;;;;;1999.90;999.90;;;;;;;24.89;41.60;94546.00;5029702;28;20030;-63
2022/08/15 03:45:09;;;;;;;1999.90;999.90;;;;;;;24.61;41.29;94500.91;5024181;28;20035;-64
2022/08/15 03:47:36;;;;;;;1999.90;999.90;;;;;;;24.83;41.70;94544.16;5014984;28;20030;-64
2022/08/15 03:50:04;;;;;;;1999.90;999.90;;;;;;;24.20;43.05;94560.78;5017078;28;20034;-64
2022/08/15 03:52:30;;;;;;;1999.90;999.90;;;;;;;24.21;43.07;94547.97;5014726;28;20451;-64
2022/08/15 03:55:00;;;;;;;1999.90;999.90;;;;;;;24.30;43.08;94540.88;5023387;28;20067;-63
2022/08/15 03:57:25;;;;;;;1999.90;999.90;;;;;;;23.60;43.13;94454.34;5033536;28;20032;-64
2022/08/15 03:59:51;;;;;;;1999.90;999.90;;;;;;;23.52;44.15;94534.28;5002737;28;20116;-63
2022/08/15 04:02:16;;;;;;;1999.90;999.90;;;;;;;22.93;45.16;94498.31;4995171;28;20049;-63
2022/08/15 04:04:41;;;;;;;1999.90;999.90;;;;;;;23.52;45.39;94557.94;5013713;28;20029;-63
2022/08/15 04:07:07;;;;;;;1999.90;999.90;;;;;;;23.85;44.58;94560.03;5012549;28;20041;-63
2022/08/15 04:09:33;;;;;;;1999.90;999.90;;;;;;;23.27;45.92;94564.34;5016800;28;20026;-64
2022/08/15 04:11:58;;;;;;;1999.90;999.90;;;;;;;22.53;46.59;94470.69;5014388;28;20418;-64
2022/08/15 04:14:24;;;;;;;1999.90;999.90;;;;;;;23.25;46.66;94558.56;5007616;28;20026;-63
2022/08/15 04:16:50;;;;;;;1999.90;999.90;;;;;;;22.41;46.99;94425.06;5010540;28;20061;-64
2022/08/15 04:19:15;;;;;;;1999.90;999.90;;;;;;;22.89;48.15;94541.75;5014450;28;20130;-64
2022/08/15 04:21:42;;;;;;;1999.90;999.90;;;;;;;22.68;48.73;94515.50;5014534;28;20099;-63
2022/08/15 04:24:08;;;;;;;1999.90;999.90;;;;;;;22.61;49.15;94567.03;5005138;28;20021;-64
2022/08/15 04:26:34;;;;;;;1999.90;999.90;;;;;;;22.62;48.86;94530.63;5013529;28;20478;-64
2022/08/15 04:29:00;;;;;;;1999.90;999.90;;;;;;;22.09;49.59;94484.81;5011582;28;20053;-64
2022/08/15 04:31:26;;;;;;;1999.90;999.90;;;;;;;22.72;48.88;94565.03;5010781;28;20060;-64
2022/08/15 04:33:51;;;;;;;1999.90;999.90;;;;;;;22.24;49.31;94470.84;4993402;28;20026;-63
2022/08/15 04:36:18;;;;;;;1999.90;999.90;;;;;;;22.43;50.37;94571.78;4997630;28;20025;-64
2022/08/15 04:38:47;;;;;;;1999.90;999.90;;;;;;;22.88;49.38;94566.50;5007464;28;20030;-63
2022/08/15 04:41:13;;;;;;;1999.90;999.90;;;;;;;22.67;49.52;94562.75;5026765;28;20112;-64
2022/08/15 04:43:40;;;;;;;1999.90;999.90;;;;;;;22.56;50.21;94537.63;5028618;28;20021;-63
2022/08/15 04:46:06;;;;;;;1999.90;999.90;;;;;;;22.72;51.80;94575.13;4999831;28;20018;-63
2022/08/15 04:48:32;;;;;;;1999.90;999.90;;;;;;;21.74;53.38;94522.41;5011948;28;20032;-62
2022/08/15 04:50:59;;;;;;;1999.90;999.90;;;;;;;21.72;55.73;94592.44;5016237;28;20030;-64
2022/08/15 04:53:29;;;;;;;1999.90;999.90;;;;;;;22.18;54.37;94552.91;5010388;28;20502;-64
2022/08/15 04:55:56;;;;;;;1999.90;999.90;;;;;;;22.58;53.67;94582.16;4983977;28;20033;-63
2022/08/15 04:58:22;;;;;;;1999.90;999.90;;;;;;;22.58;53.81;94586.81;4994007;28;20026;-63
2022/08/15 05:00:56;;;;;;;1999.90;999.90;;;;;;;21.39;51.97;94311.44;5018285;28;20022;-65
2022/08/15 05:03:22;;;;;;;1999.90;999.90;;;;;;;23.45;51.55;94585.16;4993601;28;20030;-65
2022/08/15 05:05:54;;;;;;;1999.90;999.90;;;;;;;23.69;50.58;94567.91;5009796;28;20084;-65
2022/08/15 05:08:21;;;;;;;1999.90;999.90;;;;;;;23.43;51.47;94585.53;5010432;28;20037;-63
2022/08/15 05:10:54;;;;;;;1999.90;999.90;;;;;;;23.76;50.80;94575.22;5022083;28;20041;-65
2022/08/15 05:13:23;;;;;;;1999.90;999.90;;;;;;;23.49;51.56;94578.53;5031099;28;20025;-65
2022/08/15 05:15:48;;;;;;;1999.90;999.90;;;;;;;23.19;52.24;94568.28;4998567;28;20084;-65
2022/08/15 05:18:14;;;;;;;1999.90;999.90;;;;;;;23.69;51.74;94586.91;5026912;28;20525;-65
2022/08/15 05:20:41;;;;;;;1999.90;999.90;;;;;;;23.00;53.12;94601.34;5014704;28;20074;-63
2022/08/15 05:23:10;;;;;;;1999.90;999.90;;;;;;;22.92;53.86;94600.59;5010116;28;20033;-64
2022/08/15 05:25:39;;;;;;;1999.90;999.90;;;;;;;23.28;52.78;94598.44;5009212;28;20058;-63
2022/08/15 05:28:05;;;;;;;1999.90;999.90;;;;;;;22.13;55.53;94597.41;4993594;28;20471;-63
2022/08/15 05:30:32;;;;;;;1999.90;999.90;;;;;;;22.69;54.41;94592.97;5016375;28;20025;-65
2022/08/15 05:33:06;;;;;;;1999.90;999.90;;;;;;;22.27;54.04;94562.16;5010648;28;20092;-63
2022/08/15 05:35:33;;;;;;;1999.90;999.90;;;;;;;21.97;54.33;94537.47;5009448;28;20363;-63
2022/08/15 05:38:01;;;;;;;1999.90;999.90;;;;;;;22.96;53.66;94606.78;5010374;28;20025;-63
2022/08/15 05:40:38;;;;;;;1999.90;999.90;;;;;;;22.54;54.04;94580.63;5010224;28;20068;-64
2022/08/15 05:43:24;;;;;;;1999.90;999.90;;;;;;;22.29;54.68;94567.94;5012864;28;20025;-63
2022/08/15 05:46:07;;;;;;;1999.90;999.90;;;;;;;23.24;52.85;94565.16;5013410;28;20030;-64
2022/08/15 05:48:33;;;;;;;1999.90;999.90;;;;;;;23.54;52.74;94599.81;5011156;28;20050;-64
2022/08/15 05:51:09;;;;;;;1999.90;999.90;;;;;;;23.05;53.30;94587.38;5009568;28;20106;-64
2022/08/15 05:53:57;;;;;;;1999.90;999.90;;;;;;;23.10;52.58;94535.41;5009535;28;20037;-64
2022/08/15 05:56:44;;;;;;;1999.90;999.90;;;;;;;22.92;53.12;94600.59;4996434;28;20050;-64
2022/08/15 05:59:13;;;;;;;1999.90;999.90;;;;;;;22.56;52.28;94562.81;4991979;28;20104;-64
2022/08/15 06:01:45;;;;;;;1999.90;999.90;;;;;;;23.29;50.91;94605.44;5015853;28;20026;-65
2022/08/15 06:04:20;;;;;;;1999.90;999.90;;;;;;;23.12;51.35;94606.31;5008447;28;20030;-65
2022/08/15 06:06:47;;;;;;;1999.90;999.90;;;;;;;22.57;51.31;94531.84;5025632;28;20560;-64
2022/08/15 06:09:38;;;;;;;1999.90;999.90;;;;;;;22.63;51.73;94610.81;5019487;28;20077;-64
2022/08/15 06:12:09;;;;;;;1999.90;999.90;;;;;;;22.68;50.99;94579.81;4973161;28;20475;-65
2022/08/15 06:14:40;;;;;;;1999.90;999.90;;;;;;;22.75;51.22;94564.25;5006306;28;20045;-64
2022/08/15 06:17:25;;;;;;;1999.90;999.90;;;;;;;23.56;49.49;94604.84;5009380;28;20485;-64
2022/08/15 06:19:51;;;;;;;1999.90;999.90;;;;;;;23.53;49.33;94587.41;5012424;28;20030;-65
2022/08/15 06:22:29;;;;;;;1999.90;999.90;;;;;;;24.11;47.91;94612.16;5009200;28;20025;-65
2022/08/15 06:25:22;;;;;;;1999.90;999.90;;;;;;;23.07;48.12;94490.09;5011788;28;20470;-63
2022/08/15 06:28:02;;;;;;;1999.90;999.90;;;;;;;23.41;47.93;94543.72;5010902;28;20544;-65
2022/08/15 06:30:37;;;;;;;1999.90;999.90;;;;;;;24.01;48.06;94591.31;5003293;28;20117;-64
2022/08/15 06:33:21;;;;;;;1999.90;999.90;;;;;;;24.55;46.88;94624.13;5009024;28;20478;-64
2022/08/15 06:36:01;;;;;;;1999.90;999.90;;;;;;;24.97;46.25;94627.50;5002085;28;20053;-64
2022/08/15 06:38:54;;;;;;;1999.90;999.90;;;;;;;24.83;45.52;94565.91;4991315;28;20092;-64
2022/08/15 06:41:48;;;;;;;1999.90;999.90;;;;;;;25.14;45.33;94618.38;4990254;28;20177;-64
2022/08/15 06:44:15;;;;;;;1999.90;999.90;;;;;;;25.42;45.24;94633.50;4998479;28;20022;-64
2022/08/15 06:46:42;;;;;;;1999.90;999.90;;;;;;;25.30;45.02;94574.97;5009114;28;20365;-64
2022/08/15 06:49:10;;;;;;;1999.90;999.90;;;;;;;25.89;44.39;94634.34;5015582;28;20551;-65
2022/08/15 06:51:38;;;;;;;1999.90;999.90;;;;;;;26.08;44.04;94630.16;5008566;28;20029;-67
2022/08/15 06:54:06;;;;;;;1999.90;999.90;;;;;;;25.98;43.82;94592.94;5008344;28;20036;-67
2022/08/15 06:56:41;;;;;;;1999.90;999.90;;;;;;;26.02;43.83;94592.91;5020132;28;20494;-67
2022/08/15 06:59:36;;;;;;;1999.90;999.90;;;;;;;25.88;43.56;94564.69;5026920;28;20051;-66
2022/08/15 07:02:25;;;;;;;1999.90;999.90;;;;;;;26.46;43.16;94643.50;5011391;28;20038;-65
2022/08/15 07:05:18;;;;;;;1999.90;999.90;;;;;;;26.41;43.42;94635.78;5007515;28;20038;-64
2022/08/15 07:08:11;;;;;;;1999.90;999.90;;;;;;;26.42;42.74;94642.81;4991412;28;20038;-64
2022/08/15 07:11:09;;;;;;;1999.90;999.90;;;;;;;26.32;42.69;94613.78;5022549;28;20027;-64
2022/08/15 07:13:48;;;;;;;1999.90;999.90;;;;;;;24.49;44.21;94460.69;4995982;28;20049;-63
2022/08/15 07:16:23;;;;;;;1999.90;999.90;;;;;;;25.47;44.00;94614.00;5008654;28;20625;-64
2022/08/15 07:18:52;;;;;;;1999.90;999.90;;;;;;;25.13;45.70;94614.09;5015719;28;20052;-67
2022/08/15 07:21:22;;;;;;;1999.90;999.90;;;;;;;25.68;44.61;94634.66;4992216;28;20025;-67
2022/08/15 07:24:01;;;;;;;1999.90;999.90;;;;;;;25.93;44.32;94637.03;5023699;28;20030;-64
2022/08/15 07:26:29;;;;;;;1999.90;999.90;;;;;;;25.69;43.81;94573.56;5000109;28;20383;-64
2022/08/15 07:28:59;;;;;;;1999.90;999.90;;;;;;;25.71;43.33;94606.63;5005503;28;20061;-65
2022/08/15 07:31:44;;;;;;;1999.90;999.90;;;;;;;26.20;43.40;94606.97;4991179;28;20084;-65
2022/08/15 07:34:25;;;;;;;1999.90;999.90;;;;;;;26.73;42.78;94627.03;5011370;28;20022;-66
2022/08/15 07:36:57;;;;;;;1999.90;999.90;;;;;;;27.19;41.46;94630.78;5012963;28;20037;-66
2022/08/15 07:39:43;;;;;;;1999.90;999.90;;;;;;;26.34;42.62;94614.13;5012356;28;20053;-66
2022/08/15 07:42:10;;;;;;;1999.90;999.90;;;;;;;26.59;41.89;94624.56;5012705;28;20580;-65
2022/08/15 07:44:35;;;;;;;1999.90;999.90;;;;;;;24.90;45.46;94631.84;4994180;28;20041;-65
2022/08/15 07:47:10;;;;;;;1999.90;999.90;;;;;;;26.32;43.18;94633.63;5009013;28;20033;-65
2022/08/15 07:49:37;;;;;;;1999.90;999.90;;;;;;;26.50;42.30;94635.25;4994689;28;20048;-65
2022/08/15 07:52:21;;;;;;;1999.90;999.90;;;;;;;26.69;41.82;94620.88;4994915;28;20482;-67
2022/08/15 07:55:11;;;;;;;1999.90;999.90;;;;;;;26.67;41.88;94602.19;5012087;28;20037;-65
2022/08/15 07:57:37;;;;;;;1999.90;999.90;;;;;;;25.19;45.04;94634.25;5011542;28;20037;-65
2022/08/15 08:00:08;;;;;;;1999.90;999.90;;;;;;;26.89;42.42;94629.03;5012847;28;20545;-65
2022/08/15 08:02:51;;;;;;;1999.90;999.90;;;;;;;27.34;40.78;94626.53;5012142;28;20038;-66
2022/08/15 08:05:17;;;;;;;1999.90;999.90;;;;;;;27.03;40.96;94615.09;5006175;28;20054;-65
2022/08/15 08:07:46;;;;;;;1999.90;999.90;;;;;;;27.42;39.24;94632.59;5001081;28;20034;-65
2022/08/15 08:10:28;;;;;;;1999.90;999.90;;;;;;;26.67;40.65;94631.44;4998905;28;20048;-65
2022/08/15 08:13:15;;;;;;;1999.90;999.90;;;;;;;27.15;40.18;94636.31;5012279;28;20025;-65
2022/08/15 08:16:06;;;;;;;1999.90;999.90;;;;;;;27.53;39.38;94638.59;4992681;28;20019;-65
2022/08/15 08:18:47;;;;;;;1999.90;999.90;;;;;;;26.72;40.10;94647.31;4993109;28;20387;-66
2022/08/15 08:21:20;;;;;;;1999.90;999.90;;;;;;;25.76;42.46;94617.06;4999993;28;20490;-66
2022/08/15 08:23:54;;;;;;;1999.90;999.90;;;;;;;27.18;40.38;94640.94;4994218;28;20080;-65
2022/08/15 08:26:19;;;;;;;1999.90;999.90;;;;;;;27.87;38.80;94586.28;5011442;28;20022;-66
2022/08/15 08:28:57;;;;;;;1999.90;999.90;;;;;;;28.70;37.59;94613.00;4994533;28;20489;-66
2022/08/15 08:31:52;;;;;;;1999.90;999.90;;;;;;;29.41;36.14;94650.50;5012183;28;20088;-66
2022/08/15 08:34:47;;;;;;;1999.90;999.90;;;;;;;29.76;35.66;94630.25;4993998;28;20022;-65
2022/08/15 08:37:13;;;;;;;1999.90;999.90;;;;;;;30.47;34.60;94642.84;5011883;28;20037;-65
2022/08/15 08:39:52;;;;;;;1999.90;999.90;;;;;;;30.70;33.79;94644.41;5009783;28;20034;-66
2022/08/15 08:42:30;;;;;;;1999.90;999.90;;;;;;;30.54;34.18;94648.06;5011292;28;20311;-70
2022/08/15 08:45:14;;;;;;;1999.90;999.90;;;;;;;29.50;34.85;94624.00;5012477;28;20482;-67
2022/08/15 08:47:55;;;;;;;1999.90;999.90;;;;;;;29.25;36.52;94649.41;5002473;28;20490;-68
2022/08/15 08:50:53;;;;;;;1999.90;999.90;;;;;;;26.86;40.15;94646.25;5001035;28;20052;-68
2022/08/15 08:53:29;;;;;;;1999.90;999.90;;;;;;;28.58;37.65;94634.88;5010994;28;20054;-66
2022/08/15 08:56:14;;;;;;;1999.90;999.90;;;;;;;29.49;36.35;94636.16;5012306;28;20026;-66
2022/08/15 08:58:48;;;;;;;1999.90;999.90;;;;;;;29.40;35.74;94621.59;5011375;28;20356;-67
2022/08/15 09:01:19;;;;;;;1999.90;999.90;;;;;;;27.68;37.79;94622.63;5010056;28;20100;-67
2022/08/15 09:04:02;;;;;;;;;;;;;;;26.17;41.80;94649.47;4994454;28;20022;-69
2022/08/15 09:06:36;;;;;;;1999.90;999.90;;;;;;;25.42;43.89;94637.00;5019683;28;20660;-65
2022/08/15 09:09:11;;;;;;;1999.90;999.90;;;;;;;27.17;39.98;94612.06;5010284;28;20030;-68
2022/08/15 09:11:47;;;;;;;1999.90;999.90;;;;;;;27.99;39.10;94644.94;5011381;28;20717;-70
2022/08/15 09:14:33;;;;;;;1999.90;999.90;;;;;;;28.49;38.15;94647.19;5011233;28;20030;-67
2022/08/15 09:17:06;;;;;;;1999.90;999.90;;;;;;;28.93;36.73;94642.09;5012051;28;20025;-67
2022/08/15 09:19:54;;;;;;;1999.90;999.90;;;;;;;29.03;36.57;94601.94;4993961;28;20415;-69
2022/08/15 09:22:19;;;;;;;1999.90;999.90;;;;;;;29.65;35.35;94631.81;5011304;28;20029;-68
2022/08/15 09:24:45;;;;;;;1999.90;999.90;;;;;;;29.74;35.22;94624.44;5010040;28;20026;-68
2022/08/15 09:27:26;;;;;;;1999.90;999.90;;;;;;;29.21;34.91;94595.94;4993983;28;20037;-73
2022/08/15 09:29:54;;;;;;;;;;;;;;;29.15;35.98;94645.00;4994211;28;20029;-70
2022/08/15 09:32:28;;;;;;;1999.90;999.90;;;;;;;29.38;35.87;94638.47;4993377;28;19967;-68
2022/08/15 09:35:21;;;;;;;1999.90;999.90;;;;;;;30.04;35.12;94633.25;5011543;28;20382;-75
2022/08/15 09:38:01;;;;;;;1999.90;999.90;;;;;;;30.54;33.96;94631.59;5011649;28;20022;-70
2022/08/15 09:40:54;;;;;;;1999.90;999.90;;;;;;;30.40;33.88;94638.34;5009770;28;20038;-67
2022/08/15 09:43:55;;;;;;;1999.90;999.90;;;;;;;29.97;34.15;94639.75;5009366;28;20034;-68
2022/08/15 09:47:00;;;;;;;1999.90;999.90;;;;;;;30.00;34.43;94644.38;5011258;28;20022;-67
2022/08/15 09:49:48;;;;;;;1999.90;999.90;;;;;;;29.09;36.05;94633.06;5010991;28;20025;-68
2022/08/15 09:52:22;;;;;;;1999.90;999.90;;;;;;;30.44;34.94;94633.50;5010642;28;20065;-72
2022/08/15 09:54:50;;;;;;;1999.90;999.90;;;;;;;30.87;32.93;94607.31;5010049;28;20036;-74
2022/08/15 09:57:45;;;;;;;1999.90;999.90;;;;;;;30.83;32.78;94639.63;5010257;28;20056;-74
2022/08/15 10:00:16;;;;;;;1999.90;999.90;;;;;;;31.75;32.84;94638.13;4994676;28;20032;-72
2022/08/15 10:02:43;;;;;;;1999.90;999.90;;;;;;;32.26;30.91;94636.91;4987764;28;20071;-67
2022/08/15 10:05:14;;;;;;;1999.90;999.90;;;;;;;32.48;30.61;94645.03;4993021;28;20500;-66
2022/08/15 10:07:48;;;;;;;1999.90;999.90;;;;;;;30.78;32.13;94645.69;4993957;28;20041;-66
2022/08/15 10:10:19;;;;;;;1999.90;999.90;;;;;;;30.25;32.98;94645.53;5020486;28;20022;-67
2022/08/15 10:13:22;;;;;;;1999.90;999.90;;;;;;;31.51;32.33;94651.63;4987215;28;20030;-67
2022/08/15 10:15:48;;;;;;;1999.90;999.90;;;;;;;31.98;30.65;94622.31;4979992;28;20126;-66
2022/08/15 10:18:40;;;;;;;1999.90;999.90;;;;;;;32.54;29.72;94645.94;5026297;28;20026;-67
2022/08/15 10:21:29;;;;;;;1999.90;999.90;;;;;;;31.74;30.89;94631.09;4971020;28;20048;-67
2022/08/15 10:23:55;;;;;;;1999.90;999.90;;;;;;;31.10;31.26;94611.56;4984803;28;20033;-67
2022/08/15 10:26:28;;;;;;;1999.90;999.90;;;;;;;29.07;34.75;94646.41;5008125;28;20022;-66
2022/08/15 10:29:07;;;;;;;1999.90;999.90;;;;;;;30.60;32.69;94616.09;5009511;28;20137;-68
2022/08/15 10:31:42;;;;;;;1999.90;999.90;;;;;;;32.02;31.27;94620.94;5020868;28;20112;-69
2022/08/15 10:34:18;;;;;;;1999.90;999.90;;;;;;;32.71;30.29;94616.09;5023225;28;20014;-69
2022/08/15 10:37:04;;;;;;;1999.90;999.90;;;;;;;32.80;28.89;94633.38;5007743;28;20038;-69
2022/08/15 10:39:48;;;;;;;1999.90;999.90;;;;;;;32.53;29.37;94595.63;4986864;28;20026;-67
2022/08/15 10:42:19;;;;;;;1999.90;999.90;;;;;;;32.26;29.92;94636.91;4985698;28;20066;-68
2022/08/15 10:45:03;;;;;;;1999.90;999.90;;;;;;;33.17;29.30;94636.13;4999620;28;20040;-67
2022/08/15 10:47:54;;;;;;;1999.90;999.90;;;;;;;33.70;28.24;94627.38;5009908;28;20034;-67
2022/08/15 10:50:23;;;;;;;;;;;;;;;31.64;29.79;94640.53;4990431;28;20034;-65
2022/08/15 10:53:16;;;;;;;1999.90;999.90;;;;;;;31.15;31.26;94629.44;5008922;28;19918;-68
2022/08/15 10:55:41;;;;;;;1999.90;999.90;;;;;;;31.74;30.49;94622.84;5012397;28;20038;-67
2022/08/15 10:58:12;;;;;;;1999.90;999.90;;;;;;;31.32;30.91;94625.28;5006753;28;20401;-67
2022/08/15 11:00:45;;;;;;;1999.90;999.90;;;;;;;32.49;29.56;94630.03;5009204;28;20030;-68
2022/08/15 11:03:18;;;;;;;1999.90;999.90;;;;;;;32.08;29.71;94621.13;5009899;28;20486;-68
2022/08/15 11:05:53;;;;;;;1999.90;999.90;;;;;;;32.93;28.63;94605.72;4994550;28;20072;-67
2022/08/15 11:08:19;;;;;;;1999.90;999.90;;;;;;;33.31;27.22;94568.53;5017083;28;20487;-67
2022/08/15 11:10:46;;;;;;;1999.90;999.90;;;;;;;34.08;27.09;94618.44;5010361;28;20128;-67
2022/08/15 11:13:14;;;;;;;1999.90;999.90;;;;;;;34.30;26.70;94603.59;5010997;28;20032;-67
2022/08/15 11:15:54;;;;;;;1999.90;999.90;;;;;;;34.39;26.59;94625.59;5023872;28;20478;-67
2022/08/15 11:18:29;;;;;;;1999.90;999.90;;;;;;;34.42;25.74;94593.53;4996798;28;20030;-67
2022/08/15 11:21:02;;;;;;;1999.90;999.90;;;;;;;32.03;27.22;94618.97;5000164;28;20437;-67